sensor_id;sensor_type;location;lat;lon;timestamp;temperature;humidity
42227;DHT22;27892;52.378;13.122;2022-07-06T00:01:21;20.90;48.70
42227;DHT22;27892;52.378;13.122;2022-07-06T00:03:47;20.90;48.80
42227;DHT22;27892;52.378;13.122;2022-07-06T00:06:13;20.90;48.90
42227;DHT22;27892;52.378;13.122;2022-07-06T00:08:39;20.80;49.00
42227;DHT22;27892;52.378;13.122;2022-07-06T00:11:06;20.80;49.30
42227;DHT22;27892;52.378;13.122;2022-07-06T00:13:31;20.70;49.40
42227;DHT22;27892;52.378;13.122;2022-07-06T00:15:57;20.70;49.40
42227;DHT22;27892;52.378;13.122;2022-07-06T00:18:23;20.70;49.50
42227;DHT22;27892;52.378;13.122;2022-07-06T00:20:48;20.70;49.50
42227;DHT22;27892;52.378;13.122;2022-07-06T00:23:14;20.70;49.70
42227;DHT22;27892;52.378;13.122;2022-07-06T00:25:40;20.70;49.50
42227;DHT22;27892;52.378;13.122;2022-07-06T00:28:05;20.70;49.80
42227;DHT22;27892;52.378;13.122;2022-07-06T00:30:31;20.70;50.50
42227;DHT22;27892;52.378;13.122;2022-07-06T00:32:57;20.70;50.20
42227;DHT22;27892;52.378;13.122;2022-07-06T00:35:24;20.70;50.20
42227;DHT22;27892;52.378;13.122;2022-07-06T00:37:50;20.70;50.30
42227;DHT22;27892;52.378;13.122;2022-07-06T00:40:17;20.70;50.40
42227;DHT22;27892;52.378;13.122;2022-07-06T00:42:44;20.70;50.30
42227;DHT22;27892;52.378;13.122;2022-07-06T00:45:13;20.70;50.40
42227;DHT22;27892;52.378;13.122;2022-07-06T00:47:39;20.70;50.60
42227;DHT22;27892;52.378;13.122;2022-07-06T00:50:07;20.70;50.80
42227;DHT22;27892;52.378;13.122;2022-07-06T00:52:56;20.60;50.50
42227;DHT22;27892;52.378;13.122;2022-07-06T00:55:25;20.50;50.20
42227;DHT22;27892;52.378;13.122;2022-07-06T00:57:52;20.50;50.80
42227;DHT22;27892;52.378;13.122;2022-07-06T01:00:21;20.40;50.70
42227;DHT22;27892;52.378;13.122;2022-07-06T01:02:47;20.30;51.10
42227;DHT22;27892;52.378;13.122;2022-07-06T01:05:14;20.30;51.20
42227;DHT22;27892;52.378;13.122;2022-07-06T01:07:41;20.20;51.10
42227;DHT22;27892;52.378;13.122;2022-07-06T01:10:09;20.20;51.40
42227;DHT22;27892;52.378;13.122;2022-07-06T01:12:35;20.20;51.50
42227;DHT22;27892;52.378;13.122;2022-07-06T01:15:06;20.10;51.60
42227;DHT22;27892;52.378;13.122;2022-07-06T01:17:33;20.00;51.60
42227;DHT22;27892;52.378;13.122;2022-07-06T01:20:18;20.00;51.80
42227;DHT22;27892;52.378;13.122;2022-07-06T01:22:44;20.00;52.00
42227;DHT22;27892;52.378;13.122;2022-07-06T01:25:11;20.00;52.50
42227;DHT22;27892;52.378;13.122;2022-07-06T01:27:38;20.00;52.40
42227;DHT22;27892;52.378;13.122;2022-07-06T01:30:18;20.00;52.40
42227;DHT22;27892;52.378;13.122;2022-07-06T01:32:44;20.10;52.70
42227;DHT22;27892;52.378;13.122;2022-07-06T01:35:13;20.00;52.40
42227;DHT22;27892;52.378;13.122;2022-07-06T01:37:39;20.10;52.60
42227;DHT22;27892;52.378;13.122;2022-07-06T01:40:07;20.10;52.60
42227;DHT22;27892;52.378;13.122;2022-07-06T01:42:33;20.10;52.80
42227;DHT22;27892;52.378;13.122;2022-07-06T01:44:59;20.10;52.60
42227;DHT22;27892;52.378;13.122;2022-07-06T01:47:25;20.10;53.00
42227;DHT22;27892;52.378;13.122;2022-07-06T01:49:51;20.20;53.40
42227;DHT22;27892;52.378;13.122;2022-07-06T01:52:17;20.20;53.50
42227;DHT22;27892;52.378;13.122;2022-07-06T01:54:42;20.20;53.50
42227;DHT22;27892;52.378;13.122;2022-07-06T01:57:08;20.30;54.20
42227;DHT22;27892;52.378;13.122;2022-07-06T01:59:34;20.40;53.40
42227;DHT22;27892;52.378;13.122;2022-07-06T02:01:59;20.40;53.20
42227;DHT22;27892;52.378;13.122;2022-07-06T02:04:25;20.50;53.30
42227;DHT22;27892;52.378;13.122;2022-07-06T02:06:51;20.60;53.30
42227;DHT22;27892;52.378;13.122;2022-07-06T02:09:16;20.60;53.10
42227;DHT22;27892;52.378;13.122;2022-07-06T02:11:42;20.70;53.50
42227;DHT22;27892;52.378;13.122;2022-07-06T02:14:08;20.70;53.40
42227;DHT22;27892;52.378;13.122;2022-07-06T02:16:34;20.70;53.40
42227;DHT22;27892;52.378;13.122;2022-07-06T02:19:00;20.80;53.20
42227;DHT22;27892;52.378;13.122;2022-07-06T02:21:25;20.80;52.90
42227;DHT22;27892;52.378;13.122;2022-07-06T02:23:51;20.80;53.10
42227;DHT22;27892;52.378;13.122;2022-07-06T02:26:17;20.80;53.20
42227;DHT22;27892;52.378;13.122;2022-07-06T02:28:42;20.90;53.10
42227;DHT22;27892;52.378;13.122;2022-07-06T02:31:08;20.90;53.40
42227;DHT22;27892;52.378;13.122;2022-07-06T02:33:53;20.90;53.50
42227;DHT22;27892;52.378;13.122;2022-07-06T02:36:37;20.90;53.40
42227;DHT22;27892;52.378;13.122;2022-07-06T02:39:22;20.90;53.40
42227;DHT22;27892;52.378;13.122;2022-07-06T02:42:06;20.80;53.50
42227;DHT22;27892;52.378;13.122;2022-07-06T02:44:52;20.80;53.20
42227;DHT22;27892;52.378;13.122;2022-07-06T02:47:37;20.80;53.20
42227;DHT22;27892;52.378;13.122;2022-07-06T02:50:21;20.80;53.20
42227;DHT22;27892;52.378;13.122;2022-07-06T02:53:06;20.80;55.60
42227;DHT22;27892;52.378;13.122;2022-07-06T02:55:50;20.80;55.40
42227;DHT22;27892;52.378;13.122;2022-07-06T02:58:34;20.70;56.30
42227;DHT22;27892;52.378;13.122;2022-07-06T03:01:18;20.70;57.80
42227;DHT22;27892;52.378;13.122;2022-07-06T03:03:43;20.60;58.50
42227;DHT22;27892;52.378;13.122;2022-07-06T03:06:09;20.50;58.80
42227;DHT22;27892;52.378;13.122;2022-07-06T03:08:34;20.50;59.30
42227;DHT22;27892;52.378;13.122;2022-07-06T03:11:00;20.30;59.50
42227;DHT22;27892;52.378;13.122;2022-07-06T03:13:27;20.30;59.70
42227;DHT22;27892;52.378;13.122;2022-07-06T03:15:53;20.30;60.00
42227;DHT22;27892;52.378;13.122;2022-07-06T03:18:19;20.10;60.90
42227;DHT22;27892;52.378;13.122;2022-07-06T03:20:44;20.00;60.50
42227;DHT22;27892;52.378;13.122;2022-07-06T03:23:10;20.00;61.00
42227;DHT22;27892;52.378;13.122;2022-07-06T03:25:35;19.90;61.50
42227;DHT22;27892;52.378;13.122;2022-07-06T03:28:01;19.90;61.60
42227;DHT22;27892;52.378;13.122;2022-07-06T03:30:27;19.80;61.60
42227;DHT22;27892;52.378;13.122;2022-07-06T03:32:52;19.70;61.30
42227;DHT22;27892;52.378;13.122;2022-07-06T03:35:18;19.70;61.50
42227;DHT22;27892;52.378;13.122;2022-07-06T03:37:43;19.70;61.70
42227;DHT22;27892;52.378;13.122;2022-07-06T03:40:10;19.60;62.50
42227;DHT22;27892;52.378;13.122;2022-07-06T03:42:36;19.60;63.10
42227;DHT22;27892;52.378;13.122;2022-07-06T03:45:03;19.60;63.30
42227;DHT22;27892;52.378;13.122;2022-07-06T03:47:29;19.70;63.80
42227;DHT22;27892;52.378;13.122;2022-07-06T03:49:55;19.70;63.70
42227;DHT22;27892;52.378;13.122;2022-07-06T03:52:20;19.70;63.60
42227;DHT22;27892;52.378;13.122;2022-07-06T03:54:46;19.80;63.90
42227;DHT22;27892;52.378;13.122;2022-07-06T03:57:11;19.80;64.30
42227;DHT22;27892;52.378;13.122;2022-07-06T03:59:39;19.80;64.70
42227;DHT22;27892;52.378;13.122;2022-07-06T04:02:04;19.90;64.90
42227;DHT22;27892;52.378;13.122;2022-07-06T04:04:31;19.90;65.10
42227;DHT22;27892;52.378;13.122;2022-07-06T04:06:59;19.90;64.60
42227;DHT22;27892;52.378;13.122;2022-07-06T04:09:26;19.90;64.30
42227;DHT22;27892;52.378;13.122;2022-07-06T04:11:51;19.90;64.00
42227;DHT22;27892;52.378;13.122;2022-07-06T04:14:17;19.90;63.30
42227;DHT22;27892;52.378;13.122;2022-07-06T04:16:43;19.80;63.00
42227;DHT22;27892;52.378;13.122;2022-07-06T04:19:08;19.90;63.50
42227;DHT22;27892;52.378;13.122;2022-07-06T04:21:34;19.90;62.70
42227;DHT22;27892;52.378;13.122;2022-07-06T04:24:00;20.00;62.20
42227;DHT22;27892;52.378;13.122;2022-07-06T04:26:25;20.00;61.30
42227;DHT22;27892;52.378;13.122;2022-07-06T04:28:51;20.00;60.70
42227;DHT22;27892;52.378;13.122;2022-07-06T04:31:16;20.00;60.10
42227;DHT22;27892;52.378;13.122;2022-07-06T04:33:42;20.00;59.80
42227;DHT22;27892;52.378;13.122;2022-07-06T04:36:09;20.00;59.80
42227;DHT22;27892;52.378;13.122;2022-07-06T04:38:35;20.00;60.50
42227;DHT22;27892;52.378;13.122;2022-07-06T04:41:00;20.00;60.50
42227;DHT22;27892;52.378;13.122;2022-07-06T04:43:26;20.00;60.80
42227;DHT22;27892;52.378;13.122;2022-07-06T04:45:51;20.00;60.90
42227;DHT22;27892;52.378;13.122;2022-07-06T04:48:17;20.00;60.90
42227;DHT22;27892;52.378;13.122;2022-07-06T04:50:43;20.10;60.40
42227;DHT22;27892;52.378;13.122;2022-07-06T04:53:09;20.20;60.20
42227;DHT22;27892;52.378;13.122;2022-07-06T04:55:34;20.20;60.10
42227;DHT22;27892;52.378;13.122;2022-07-06T04:58:00;20.20;59.70
42227;DHT22;27892;52.378;13.122;2022-07-06T05:00:26;20.20;59.70
42227;DHT22;27892;52.378;13.122;2022-07-06T05:02:51;20.30;59.30
42227;DHT22;27892;52.378;13.122;2022-07-06T05:05:17;20.40;59.80
42227;DHT22;27892;52.378;13.122;2022-07-06T05:07:43;20.40;58.40
42227;DHT22;27892;52.378;13.122;2022-07-06T05:10:10;20.50;58.40
42227;DHT22;27892;52.378;13.122;2022-07-06T05:12:36;20.50;58.20
42227;DHT22;27892;52.378;13.122;2022-07-06T05:15:02;20.60;58.50
42227;DHT22;27892;52.378;13.122;2022-07-06T05:17:28;20.60;57.90
42227;DHT22;27892;52.378;13.122;2022-07-06T05:19:53;20.60;58.10
42227;DHT22;27892;52.378;13.122;2022-07-06T05:22:19;20.70;57.50
42227;DHT22;27892;52.378;13.122;2022-07-06T05:24:45;20.80;57.80
42227;DHT22;27892;52.378;13.122;2022-07-06T05:27:10;20.90;57.50
42227;DHT22;27892;52.378;13.122;2022-07-06T05:29:36;21.00;57.50
42227;DHT22;27892;52.378;13.122;2022-07-06T05:32:02;21.10;56.30
42227;DHT22;27892;52.378;13.122;2022-07-06T05:34:27;21.20;55.20
42227;DHT22;27892;52.378;13.122;2022-07-06T05:36:53;21.20;55.30
42227;DHT22;27892;52.378;13.122;2022-07-06T05:39:19;21.30;55.30
42227;DHT22;27892;52.378;13.122;2022-07-06T05:41:45;21.50;54.70
42227;DHT22;27892;52.378;13.122;2022-07-06T05:44:11;21.70;54.60
42227;DHT22;27892;52.378;13.122;2022-07-06T05:46:37;21.70;54.20
42227;DHT22;27892;52.378;13.122;2022-07-06T05:49:02;21.70;53.90
42227;DHT22;27892;52.378;13.122;2022-07-06T05:51:46;21.70;54.10
42227;DHT22;27892;52.378;13.122;2022-07-06T05:54:12;21.70;53.90
42227;DHT22;27892;52.378;13.122;2022-07-06T05:56:37;21.80;54.10
42227;DHT22;27892;52.378;13.122;2022-07-06T05:59:03;22.00;53.80
42227;DHT22;27892;52.378;13.122;2022-07-06T06:01:29;22.30;53.60
42227;DHT22;27892;52.378;13.122;2022-07-06T06:03:54;22.60;51.90
42227;DHT22;27892;52.378;13.122;2022-07-06T06:06:20;23.00;51.70
42227;DHT22;27892;52.378;13.122;2022-07-06T06:08:46;23.30;50.80
42227;DHT22;27892;52.378;13.122;2022-07-06T06:11:14;23.60;50.20
42227;DHT22;27892;52.378;13.122;2022-07-06T06:13:41;24.40;49.00
42227;DHT22;27892;52.378;13.122;2022-07-06T06:16:07;26.10;46.60
42227;DHT22;27892;52.378;13.122;2022-07-06T06:18:32;28.00;43.10
42227;DHT22;27892;52.378;13.122;2022-07-06T06:20:58;29.60;40.20
42227;DHT22;27892;52.378;13.122;2022-07-06T06:23:24;30.70;37.30
42227;DHT22;27892;52.378;13.122;2022-07-06T06:25:50;31.50;35.60
42227;DHT22;27892;52.378;13.122;2022-07-06T06:28:15;32.50;34.10
42227;DHT22;27892;52.378;13.122;2022-07-06T06:30:41;33.50;32.50
42227;DHT22;27892;52.378;13.122;2022-07-06T06:35:38;34.30;29.70
42227;DHT22;27892;52.378;13.122;2022-07-06T06:38:06;34.40;30.10
42227;DHT22;27892;52.378;13.122;2022-07-06T06:40:32;35.40;29.00
42227;DHT22;27892;52.378;13.122;2022-07-06T06:42:58;35.80;27.70
42227;DHT22;27892;52.378;13.122;2022-07-06T06:45:24;35.00;28.30
42227;DHT22;27892;52.378;13.122;2022-07-06T06:47:49;34.10;29.30
42227;DHT22;27892;52.378;13.122;2022-07-06T06:50:15;34.80;29.00
42227;DHT22;27892;52.378;13.122;2022-07-06T06:52:41;35.60;27.00
42227;DHT22;27892;52.378;13.122;2022-07-06T06:55:07;34.40;27.90
42227;DHT22;27892;52.378;13.122;2022-07-06T06:57:33;34.60;27.70
42227;DHT22;27892;52.378;13.122;2022-07-06T06:59:58;33.50;28.30
42227;DHT22;27892;52.378;13.122;2022-07-06T07:02:24;34.10;29.00
42227;DHT22;27892;52.378;13.122;2022-07-06T07:04:49;35.10;27.30
42227;DHT22;27892;52.378;13.122;2022-07-06T07:07:15;35.50;26.40
42227;DHT22;27892;52.378;13.122;2022-07-06T07:09:41;36.40;26.20
42227;DHT22;27892;52.378;13.122;2022-07-06T07:12:07;37.20;25.10
42227;DHT22;27892;52.378;13.122;2022-07-06T07:14:32;37.70;24.60
42227;DHT22;27892;52.378;13.122;2022-07-06T07:16:58;38.40;24.20
42227;DHT22;27892;52.378;13.122;2022-07-06T07:19:23;38.80;23.80
42227;DHT22;27892;52.378;13.122;2022-07-06T07:21:49;39.30;22.90
42227;DHT22;27892;52.378;13.122;2022-07-06T07:24:15;38.90;23.20
42227;DHT22;27892;52.378;13.122;2022-07-06T07:26:40;39.30;23.10
42227;DHT22;27892;52.378;13.122;2022-07-06T07:29:06;39.40;22.40
42227;DHT22;27892;52.378;13.122;2022-07-06T07:31:31;39.20;22.30
42227;DHT22;27892;52.378;13.122;2022-07-06T07:33:57;39.50;22.50
42227;DHT22;27892;52.378;13.122;2022-07-06T07:36:24;40.10;22.00
42227;DHT22;27892;52.378;13.122;2022-07-06T07:38:50;39.90;22.00
42227;DHT22;27892;52.378;13.122;2022-07-06T07:41:16;39.50;22.20
42227;DHT22;27892;52.378;13.122;2022-07-06T07:43:43;39.40;21.90
42227;DHT22;27892;52.378;13.122;2022-07-06T07:46:08;39.50;21.60
42227;DHT22;27892;52.378;13.122;2022-07-06T07:48:34;39.10;22.20
42227;DHT22;27892;52.378;13.122;2022-07-06T07:51:00;38.40;22.50
42227;DHT22;27892;52.378;13.122;2022-07-06T07:53:25;37.00;23.70
42227;DHT22;27892;52.378;13.122;2022-07-06T07:55:52;36.00;23.90
42227;DHT22;27892;52.378;13.122;2022-07-06T07:58:18;34.90;25.40
42227;DHT22;27892;52.378;13.122;2022-07-06T08:00:43;34.20;25.50
42227;DHT22;27892;52.378;13.122;2022-07-06T08:03:10;32.40;27.40
42227;DHT22;27892;52.378;13.122;2022-07-06T08:05:35;31.10;28.10
42227;DHT22;27892;52.378;13.122;2022-07-06T08:08:01;30.10;29.70
42227;DHT22;27892;52.378;13.122;2022-07-06T08:10:26;29.70;29.40
42227;DHT22;27892;52.378;13.122;2022-07-06T08:12:52;29.20;30.30
42227;DHT22;27892;52.378;13.122;2022-07-06T08:15:18;28.90;30.70
42227;DHT22;27892;52.378;13.122;2022-07-06T08:17:44;28.40;31.70
42227;DHT22;27892;52.378;13.122;2022-07-06T08:20:11;28.00;33.20
42227;DHT22;27892;52.378;13.122;2022-07-06T08:22:37;27.60;34.50
42227;DHT22;27892;52.378;13.122;2022-07-06T08:25:04;27.20;33.40
42227;DHT22;27892;52.378;13.122;2022-07-06T08:27:31;26.70;33.90
42227;DHT22;27892;52.378;13.122;2022-07-06T08:29:56;26.40;35.50
42227;DHT22;27892;52.378;13.122;2022-07-06T08:32:23;26.00;36.00
42227;DHT22;27892;52.378;13.122;2022-07-06T08:34:48;25.50;36.60
42227;DHT22;27892;52.378;13.122;2022-07-06T08:37:14;25.50;37.20
42227;DHT22;27892;52.378;13.122;2022-07-06T08:39:40;25.80;36.50
42227;DHT22;27892;52.378;13.122;2022-07-06T08:42:07;26.10;36.40
42227;DHT22;27892;52.378;13.122;2022-07-06T08:44:33;26.00;36.00
42227;DHT22;27892;52.378;13.122;2022-07-06T08:47:04;25.70;36.50
42227;DHT22;27892;52.378;13.122;2022-07-06T08:49:31;25.50;36.70
42227;DHT22;27892;52.378;13.122;2022-07-06T08:51:57;25.20;37.10
42227;DHT22;27892;52.378;13.122;2022-07-06T08:54:23;25.00;38.90
42227;DHT22;27892;52.378;13.122;2022-07-06T08:56:50;25.00;39.10
42227;DHT22;27892;52.378;13.122;2022-07-06T08:59:16;24.90;38.80
42227;DHT22;27892;52.378;13.122;2022-07-06T09:01:43;24.90;39.30
42227;DHT22;27892;52.378;13.122;2022-07-06T09:04:12;24.90;38.60
42227;DHT22;27892;52.378;13.122;2022-07-06T09:06:42;24.80;38.30
42227;DHT22;27892;52.378;13.122;2022-07-06T09:09:09;24.70;38.70
42227;DHT22;27892;52.378;13.122;2022-07-06T09:11:35;24.50;38.60
42227;DHT22;27892;52.378;13.122;2022-07-06T09:14:03;24.40;38.10
42227;DHT22;27892;52.378;13.122;2022-07-06T09:16:29;24.40;38.90
42227;DHT22;27892;52.378;13.122;2022-07-06T09:18:56;24.40;39.10
42227;DHT22;27892;52.378;13.122;2022-07-06T09:21:28;24.40;38.90
42227;DHT22;27892;52.378;13.122;2022-07-06T09:23:57;24.40;39.00
42227;DHT22;27892;52.378;13.122;2022-07-06T09:26:24;24.50;39.60
42227;DHT22;27892;52.378;13.122;2022-07-06T09:28:50;24.70;40.20
42227;DHT22;27892;52.378;13.122;2022-07-06T09:31:16;25.00;39.50
42227;DHT22;27892;52.378;13.122;2022-07-06T09:41:58;25.70;38.00
42227;DHT22;27892;52.378;13.122;2022-07-06T09:44:30;25.60;37.50
42227;DHT22;27892;52.378;13.122;2022-07-06T09:46:58;25.60;36.80
42227;DHT22;27892;52.378;13.122;2022-07-06T09:49:24;25.80;36.50
42227;DHT22;27892;52.378;13.122;2022-07-06T09:51:52;25.90;35.00
42227;DHT22;27892;52.378;13.122;2022-07-06T09:54:20;26.00;33.70
42227;DHT22;27892;52.378;13.122;2022-07-06T09:56:47;26.00;35.10
42227;DHT22;27892;52.378;13.122;2022-07-06T09:59:16;26.00;33.30
42227;DHT22;27892;52.378;13.122;2022-07-06T10:01:42;26.00;33.50
42227;DHT22;27892;52.378;13.122;2022-07-06T10:04:10;26.00;35.00
42227;DHT22;27892;52.378;13.122;2022-07-06T10:06:36;25.90;34.10
42227;DHT22;27892;52.378;13.122;2022-07-06T10:09:05;25.90;34.00
42227;DHT22;27892;52.378;13.122;2022-07-06T10:11:37;26.00;33.00
42227;DHT22;27892;52.378;13.122;2022-07-06T10:14:05;26.00;33.50
42227;DHT22;27892;52.378;13.122;2022-07-06T10:16:31;26.20;34.60
42227;DHT22;27892;52.378;13.122;2022-07-06T10:18:57;26.50;34.50
42227;DHT22;27892;52.378;13.122;2022-07-06T10:21:24;27.30;34.50
42227;DHT22;27892;52.378;13.122;2022-07-06T10:23:51;27.50;31.40
42227;DHT22;27892;52.378;13.122;2022-07-06T10:26:18;27.40;31.20
42227;DHT22;27892;52.378;13.122;2022-07-06T10:28:47;27.20;31.60
42227;DHT22;27892;52.378;13.122;2022-07-06T10:31:17;26.80;30.80
42227;DHT22;27892;52.378;13.122;2022-07-06T10:33:43;26.50;31.90
42227;DHT22;27892;52.378;13.122;2022-07-06T10:36:10;26.40;33.60
42227;DHT22;27892;52.378;13.122;2022-07-06T10:38:39;26.40;33.30
42227;DHT22;27892;52.378;13.122;2022-07-06T10:41:06;26.40;33.60
42227;DHT22;27892;52.378;13.122;2022-07-06T10:45:59;26.90;33.20
42227;DHT22;27892;52.378;13.122;2022-07-06T10:48:25;27.10;31.40
42227;DHT22;27892;52.378;13.122;2022-07-06T10:50:59;26.90;32.10
42227;DHT22;27892;52.378;13.122;2022-07-06T10:53:28;26.80;32.70
42227;DHT22;27892;52.378;13.122;2022-07-06T10:55:56;26.70;33.50
42227;DHT22;27892;52.378;13.122;2022-07-06T10:58:46;26.60;34.50
42227;DHT22;27892;52.378;13.122;2022-07-06T11:01:12;26.60;33.40
42227;DHT22;27892;52.378;13.122;2022-07-06T11:03:42;26.70;34.50
42227;DHT22;27892;52.378;13.122;2022-07-06T11:06:19;26.70;34.70
42227;DHT22;27892;52.378;13.122;2022-07-06T11:08:51;26.70;35.50
42227;DHT22;27892;52.378;13.122;2022-07-06T11:11:39;26.80;35.10
42227;DHT22;27892;52.378;13.122;2022-07-06T11:14:11;26.80;34.20
42227;DHT22;27892;52.378;13.122;2022-07-06T11:16:40;26.80;34.60
42227;DHT22;27892;52.378;13.122;2022-07-06T11:21:53;27.10;33.00
42227;DHT22;27892;52.378;13.122;2022-07-06T11:24:33;27.50;33.30
42227;DHT22;27892;52.378;13.122;2022-07-06T11:27:00;27.90;33.00
42227;DHT22;27892;52.378;13.122;2022-07-06T11:29:27;28.40;33.50
42227;DHT22;27892;52.378;13.122;2022-07-06T11:31:58;28.70;32.30
42227;DHT22;27892;52.378;13.122;2022-07-06T11:34:31;28.80;31.30
42227;DHT22;27892;52.378;13.122;2022-07-06T11:36:59;28.60;32.80
42227;DHT22;27892;52.378;13.122;2022-07-06T11:39:29;28.30;33.40
42227;DHT22;27892;52.378;13.122;2022-07-06T11:41:56;28.10;33.30
42227;DHT22;27892;52.378;13.122;2022-07-06T11:44:22;27.60;33.00
42227;DHT22;27892;52.378;13.122;2022-07-06T11:46:48;27.40;34.10
42227;DHT22;27892;52.378;13.122;2022-07-06T11:49:14;27.20;34.90
42227;DHT22;27892;52.378;13.122;2022-07-06T11:51:41;27.10;35.10
42227;DHT22;27892;52.378;13.122;2022-07-06T11:54:11;27.30;34.30
42227;DHT22;27892;52.378;13.122;2022-07-06T11:56:38;28.00;34.70
42227;DHT22;27892;52.378;13.122;2022-07-06T11:59:04;28.60;33.80
42227;DHT22;27892;52.378;13.122;2022-07-06T12:01:30;28.80;32.30
42227;DHT22;27892;52.378;13.122;2022-07-06T12:03:58;28.60;33.00
42227;DHT22;27892;52.378;13.122;2022-07-06T12:06:25;28.40;31.60
42227;DHT22;27892;52.378;13.122;2022-07-06T12:08:57;28.00;32.40
42227;DHT22;27892;52.378;13.122;2022-07-06T12:11:28;27.60;33.40
42227;DHT22;27892;52.378;13.122;2022-07-06T12:13:58;27.50;34.70
42227;DHT22;27892;52.378;13.122;2022-07-06T12:16:34;27.60;33.70
42227;DHT22;27892;52.378;13.122;2022-07-06T12:19:01;27.70;34.50
42227;DHT22;27892;52.378;13.122;2022-07-06T12:21:27;27.90;34.20
42227;DHT22;27892;52.378;13.122;2022-07-06T12:23:53;28.00;33.80
42227;DHT22;27892;52.378;13.122;2022-07-06T12:26:21;28.00;33.00
42227;DHT22;27892;52.378;13.122;2022-07-06T12:29:09;28.10;33.60
42227;DHT22;27892;52.378;13.122;2022-07-06T12:31:38;28.00;33.40
42227;DHT22;27892;52.378;13.122;2022-07-06T12:34:05;28.20;33.30
42227;DHT22;27892;52.378;13.122;2022-07-06T12:39:13;28.20;34.70
42227;DHT22;27892;52.378;13.122;2022-07-06T12:41:45;28.60;32.60
42227;DHT22;27892;52.378;13.122;2022-07-06T12:44:12;28.80;32.50
42227;DHT22;27892;52.378;13.122;2022-07-06T12:46:40;29.00;32.70
42227;DHT22;27892;52.378;13.122;2022-07-06T12:49:16;29.10;32.50
42227;DHT22;27892;52.378;13.122;2022-07-06T12:54:36;28.70;33.50
42227;DHT22;27892;52.378;13.122;2022-07-06T12:57:15;28.60;32.00
42227;DHT22;27892;52.378;13.122;2022-07-06T12:59:46;28.30;32.90
42227;DHT22;27892;52.378;13.122;2022-07-06T13:02:35;28.10;33.60
42227;DHT22;27892;52.378;13.122;2022-07-06T13:05:09;28.00;33.00
42227;DHT22;27892;52.378;13.122;2022-07-06T13:07:38;28.00;32.30
42227;DHT22;27892;52.378;13.122;2022-07-06T13:10:06;28.20;31.80
42227;DHT22;27892;52.378;13.122;2022-07-06T13:12:32;28.30;31.70
42227;DHT22;27892;52.378;13.122;2022-07-06T13:14:58;28.30;30.60
42227;DHT22;27892;52.378;13.122;2022-07-06T13:17:24;28.30;30.60
42227;DHT22;27892;52.378;13.122;2022-07-06T13:19:50;28.30;31.80
42227;DHT22;27892;52.378;13.122;2022-07-06T13:22:16;28.50;31.80
42227;DHT22;27892;52.378;13.122;2022-07-06T13:24:42;28.30;30.70
42227;DHT22;27892;52.378;13.122;2022-07-06T13:27:08;28.20;30.70
42227;DHT22;27892;52.378;13.122;2022-07-06T13:29:34;28.00;31.70
42227;DHT22;27892;52.378;13.122;2022-07-06T13:31:59;27.90;30.80
42227;DHT22;27892;52.378;13.122;2022-07-06T13:34:25;27.90;32.20
42227;DHT22;27892;52.378;13.122;2022-07-06T13:36:51;27.90;32.30
42227;DHT22;27892;52.378;13.122;2022-07-06T13:39:17;27.90;32.30
42227;DHT22;27892;52.378;13.122;2022-07-06T13:41:43;27.90;31.30
42227;DHT22;27892;52.378;13.122;2022-07-06T13:44:09;27.90;31.90
42227;DHT22;27892;52.378;13.122;2022-07-06T13:46:37;27.90;30.70
42227;DHT22;27892;52.378;13.122;2022-07-06T13:49:03;27.80;31.80
42227;DHT22;27892;52.378;13.122;2022-07-06T13:51:29;27.60;32.70
42227;DHT22;27892;52.378;13.122;2022-07-06T13:53:56;27.50;31.90
42227;DHT22;27892;52.378;13.122;2022-07-06T13:56:22;27.20;32.20
42227;DHT22;27892;52.378;13.122;2022-07-06T13:58:48;26.90;32.30
42227;DHT22;27892;52.378;13.122;2022-07-06T14:01:14;26.60;32.50
42227;DHT22;27892;52.378;13.122;2022-07-06T14:03:39;26.40;33.70
42227;DHT22;27892;52.378;13.122;2022-07-06T14:06:06;26.20;33.50
42227;DHT22;27892;52.378;13.122;2022-07-06T14:08:37;26.10;33.90
42227;DHT22;27892;52.378;13.122;2022-07-06T14:11:04;25.90;33.50
42227;DHT22;27892;52.378;13.122;2022-07-06T14:13:30;25.80;34.80
42227;DHT22;27892;52.378;13.122;2022-07-06T14:15:56;25.70;34.30
42227;DHT22;27892;52.378;13.122;2022-07-06T14:18:25;25.60;34.60
42227;DHT22;27892;52.378;13.122;2022-07-06T14:20:52;25.60;35.50
42227;DHT22;27892;52.378;13.122;2022-07-06T14:23:18;25.60;35.60
42227;DHT22;27892;52.378;13.122;2022-07-06T14:25:44;25.60;35.20
42227;DHT22;27892;52.378;13.122;2022-07-06T14:28:11;25.50;35.30
42227;DHT22;27892;52.378;13.122;2022-07-06T14:30:39;25.40;34.30
42227;DHT22;27892;52.378;13.122;2022-07-06T14:33:07;25.40;34.50
42227;DHT22;27892;52.378;13.122;2022-07-06T14:35:44;25.30;35.10
42227;DHT22;27892;52.378;13.122;2022-07-06T14:38:12;25.30;35.80
42227;DHT22;27892;52.378;13.122;2022-07-06T14:40:37;25.20;35.40
42227;DHT22;27892;52.378;13.122;2022-07-06T14:43:03;25.10;35.30
42227;DHT22;27892;52.378;13.122;2022-07-06T14:45:29;25.10;35.70
42227;DHT22;27892;52.378;13.122;2022-07-06T14:47:56;25.10;36.40
42227;DHT22;27892;52.378;13.122;2022-07-06T14:50:22;24.90;35.50
42227;DHT22;27892;52.378;13.122;2022-07-06T14:52:49;24.90;36.00
42227;DHT22;27892;52.378;13.122;2022-07-06T14:55:15;24.90;36.40
42227;DHT22;27892;52.378;13.122;2022-07-06T14:57:41;24.80;36.20
42227;DHT22;27892;52.378;13.122;2022-07-06T15:00:07;24.80;36.10
42227;DHT22;27892;52.378;13.122;2022-07-06T15:02:34;24.60;36.30
42227;DHT22;27892;52.378;13.122;2022-07-06T15:04:59;24.50;36.70
42227;DHT22;27892;52.378;13.122;2022-07-06T15:07:25;24.50;36.80
42227;DHT22;27892;52.378;13.122;2022-07-06T15:09:50;24.40;36.90
42227;DHT22;27892;52.378;13.122;2022-07-06T15:12:16;24.40;36.80
42227;DHT22;27892;52.378;13.122;2022-07-06T15:14:41;24.40;37.20
42227;DHT22;27892;52.378;13.122;2022-07-06T15:17:07;24.40;37.50
42227;DHT22;27892;52.378;13.122;2022-07-06T15:19:33;24.40;36.60
42227;DHT22;27892;52.378;13.122;2022-07-06T15:21:59;24.50;37.60
42227;DHT22;27892;52.378;13.122;2022-07-06T15:24:24;24.70;37.50
42227;DHT22;27892;52.378;13.122;2022-07-06T15:26:50;24.90;37.50
42227;DHT22;27892;52.378;13.122;2022-07-06T15:29:16;25.00;36.80
42227;DHT22;27892;52.378;13.122;2022-07-06T15:31:42;25.10;37.00
42227;DHT22;27892;52.378;13.122;2022-07-06T15:34:08;25.10;36.80
42227;DHT22;27892;52.378;13.122;2022-07-06T15:36:33;25.20;36.80
42227;DHT22;27892;52.378;13.122;2022-07-06T15:38:59;25.20;37.50